Time;durP1;ratioP1;P1;durP2;ratioP2;P2;SDS_P1;SDS_P2;PMS_P1;PMS_P2;Temp;Humidity;BMP_temperature;BMP_pressure;BME280_temperature;BME280_humidity;BME280_pressure;Samples;Min_cycle;Max_cycle;Signal;HPM_P1;HPM_P2
2023/01/15 00:01:30;;;;;;;2.47;1.20;;;13.30;71.40;;;;;;5059712;28;20547;-87
2023/01/15 00:03:59;;;;;;;2.10;1.90;;;13.40;71.70;;;;;;5082767;28;20478;-89
2023/01/15 00:06:27;;;;;;;0.83;0.83;;;13.40;71.30;;;;;;5071802;28;20446;-89
2023/01/15 00:08:56;;;;;;;4.93;1.07;;;13.20;71.50;;;;;;5070032;28;20443;-90
2023/01/15 00:11:23;;;;;;;3.27;1.13;;;13.40;71.20;;;;;;5072255;28;20458;-90
2023/01/15 00:13:51;;;;;;;10.43;5.00;;;13.50;71.40;;;;;;5072266;28;20450;-90
2023/01/15 00:16:20;;;;;;;4.00;1.73;;;13.60;70.70;;;;;;5054668;28;20454;-88
2023/01/15 00:18:50;;;;;;;62.53;29.67;;;13.70;70.50;;;;;;5069972;28;20450;-90
2023/01/15 00:21:17;;;;;;;3.47;2.03;;;13.70;70.90;;;;;;5055704;28;20471;-90
2023/01/15 00:29:17;;;;;;;1.53;1.33;;;13.60;71.00;;;;;;5071345;28;20581;-90
2023/01/15 00:31:52;;;;;;;1.63;1.53;;;13.60;71.30;;;;;;5055765;28;21159;-90
2023/01/15 00:34:20;;;;;;;2.43;1.10;;;13.70;71.10;;;;;;5056882;28;20442;-90
2023/01/15 00:36:47;;;;;;;1.30;1.07;;;13.80;70.20;;;;;;5056687;28;20455;-89
2023/01/15 00:39:14;;;;;;;2.77;1.70;;;14.00;69.80;;;;;;5070982;28;20823;-90
2023/01/15 00:41:42;;;;;;;3.77;1.20;;;13.70;70.60;;;;;;5088387;28;20450;-90
2023/01/15 00:44:10;;;;;;;1.80;1.50;;;13.60;71.60;;;;;;5070263;28;20999;-90
2023/01/15 00:46:37;;;;;;;1.60;1.00;;;13.70;71.10;;;;;;5070359;28;20451;-89
2023/01/15 00:49:05;;;;;;;0.70;0.60;;;13.80;70.70;;;;;;5052531;28;20535;-90
2023/01/15 00:51:32;;;;;;;0.73;0.67;;;13.60;71.10;;;;;;5055446;28;20467;-91
2023/01/15 00:53:59;;;;;;;1.30;1.13;;;13.50;71.80;;;;;;5055619;28;20446;-90
2023/01/15 00:56:27;;;;;;;1.30;0.97;;;13.70;71.60;;;;;;5054913;28;20450;-90
2023/01/15 00:58:56;;;;;;;1.50;1.00;;;13.80;70.90;;;;;;5058414;28;20482;-90
2023/01/15 01:01:24;;;;;;;0.80;0.80;;;13.80;70.20;;;;;;5060875;28;20498;-90
2023/01/15 01:03:53;;;;;;;0.90;0.80;;;14.00;70.00;;;;;;5054475;28;20467;-88
2023/01/15 01:06:23;;;;;;;0.97;0.87;;;14.00;69.90;;;;;;5072218;28;20500;-90
2023/01/15 01:08:50;;;;;;;1.60;1.50;;;14.10;69.90;;;;;;5055713;28;20482;-90
2023/01/15 01:11:25;;;;;;;1.00;0.90;;;14.20;69.60;;;;;;5068743;28;20525;-90
2023/01/15 01:13:56;;;;;;;2.23;2.03;;;14.20;69.10;;;;;;5070997;28;20495;-89
2023/01/15 01:16:30;;;;;;;0.70;0.50;;;14.20;69.20;;;;;;5060197;28;20450;-90
2023/01/15 01:18:58;;;;;;;0.80;0.73;;;14.00;69.30;;;;;;5057433;28;20446;-88
2023/01/15 01:21:26;;;;;;;0.70;0.67;;;13.90;69.50;;;;;;5075819;28;20997;-90
2023/01/15 01:23:53;;;;;;;1.40;1.30;;;13.70;71.00;;;;;;5061745;28;20470;-90
2023/01/15 01:26:21;;;;;;;0.90;0.77;;;14.00;70.20;;;;;;5075528;27;20457;-90
2023/01/15 01:28:52;;;;;;;0.83;0.70;;;14.00;69.80;;;;;;5063245;28;20446;-90
2023/01/15 01:31:21;;;;;;;0.80;0.70;;;14.20;69.10;;;;;;5062488;27;20531;-89
2023/01/15 01:33:49;;;;;;;0.77;0.60;;;14.30;68.30;;;;;;5062265;28;20933;-90
2023/01/15 01:36:16;;;;;;;1.00;0.60;;;14.50;68.30;;;;;;5062572;27;20463;-89
2023/01/15 01:38:44;;;;;;;0.93;0.60;;;14.30;68.60;;;;;;5078799;27;20828;-90
2023/01/15 01:41:11;;;;;;;0.70;0.60;;;13.90;70.10;;;;;;5054808;28;20545;-90
2023/01/15 01:43:54;;;;;;;1.10;0.67;;;14.00;70.10;;;;;;5057429;28;20470;-89
2023/01/15 01:46:22;;;;;;;1.00;0.80;;;14.10;69.60;;;;;;5051252;28;20447;-89
2023/01/15 01:48:51;;;;;;;0.90;0.60;;;14.10;70.00;;;;;;5069452;28;20443;-91
2023/01/15 01:51:22;;;;;;;1.00;0.80;;;14.20;70.00;;;;;;5087890;28;20460;-89
2023/01/15 01:53:49;;;;;;;0.80;0.60;;;14.10;70.20;;;;;;5087714;28;20535;-89
2023/01/15 01:56:18;;;;;;;0.87;0.80;;;14.10;70.40;;;;;;5068157;27;20451;-91
2023/01/15 01:58:48;;;;;;;0.80;0.73;;;14.20;70.60;;;;;;5050344;28;20956;-89
2023/01/15 02:01:15;;;;;;;0.70;0.67;;;14.10;70.50;;;;;;5073024;28;20458;-91
2023/01/15 02:03:45;;;;;;;0.83;0.70;;;14.00;70.90;;;;;;5057983;28;21002;-90
2023/01/15 02:06:14;;;;;;;0.80;0.63;;;14.10;71.30;;;;;;5051456;28;20451;-90
2023/01/15 02:08:41;;;;;;;0.87;0.70;;;14.20;70.80;;;;;;5058576;27;20499;-90
2023/01/15 02:11:16;;;;;;;0.73;0.60;;;14.30;70.40;;;;;;5088433;28;21164;-90
2023/01/15 02:13:55;;;;;;;0.90;0.60;;;14.20;69.80;;;;;;5088121;27;20943;-89
2023/01/15 02:16:28;;;;;;;0.63;0.50;;;14.10;70.50;;;;;;5064208;28;20454;-90
2023/01/15 02:19:03;;;;;;;2.93;0.70;;;14.00;71.50;;;;;;5057503;28;20491;-90
2023/01/15 02:21:42;;;;;;;0.73;0.53;;;14.10;70.80;;;;;;5056088;27;20960;-89
2023/01/15 02:24:15;;;;;;;0.70;0.60;;;14.20;70.20;;;;;;5060348;28;20491;-90
2023/01/15 02:27:10;;;;;;;0.80;0.60;;;14.00;71.50;;;;;;5053780;28;20443;-90
2023/01/15 02:29:49;;;;;;;0.70;0.50;;;14.00;70.90;;;;;;5072798;27;20469;-90
2023/01/15 02:32:26;;;;;;;0.67;0.50;;;14.20;70.60;;;;;;5073009;27;20443;-90
2023/01/15 02:34:58;;;;;;;0.70;0.50;;;13.80;71.70;;;;;;5074688;28;20788;-90
2023/01/15 02:37:28;;;;;;;0.80;0.60;;;14.00;71.70;;;;;;5057140;28;20478;-89
2023/01/15 02:39:58;;;;;;;0.70;0.50;;;14.00;71.50;;;;;;5060005;28;20478;-90
2023/01/15 02:42:29;;;;;;;0.70;0.60;;;14.10;71.40;;;;;;5073206;28;20431;-89
2023/01/15 02:44:59;;;;;;;0.80;0.60;;;14.10;71.30;;;;;;5073488;28;20462;-90
2023/01/15 02:47:30;;;;;;;0.93;0.70;;;14.20;71.30;;;;;;5072485;28;20442;-90
2023/01/15 02:50:02;;;;;;;0.70;0.60;;;14.50;70.70;;;;;;5070588;28;20976;-90
2023/01/15 02:52:41;;;;;;;2.60;1.30;;;14.20;70.80;;;;;;5073950;28;22787;-90
2023/01/15 02:55:14;;;;;;;14.33;9.10;;;14.10;71.80;;;;;;5071758;28;20512;-90
2023/01/15 02:57:47;;;;;;;3.07;1.90;;;14.20;71.60;;;;;;5074121;28;20445;-90
2023/01/15 03:00:20;;;;;;;6.20;4.60;;;14.20;71.40;;;;;;5072165;28;20472;-90
2023/01/15 03:02:55;;;;;;;3.70;2.90;;;14.50;70.60;;;;;;5045617;28;20439;-90
2023/01/15 03:05:27;;;;;;;2.53;1.80;;;14.50;70.10;;;;;;5070111;28;20494;-89
2023/01/15 03:07:57;;;;;;;1.10;1.00;;;14.30;70.80;;;;;;5050598;28;20514;-90
2023/01/15 03:10:35;;;;;;;2.00;1.00;;;14.40;70.90;;;;;;5086733;28;20469;-90
2023/01/15 03:13:07;;;;;;;2.23;1.00;;;14.40;70.50;;;;;;5082006;28;20438;-90
2023/01/15 03:18:41;;;;;;;0.70;0.60;;;14.50;70.00;;;;;;5054954;28;20789;-90
2023/01/15 03:21:13;;;;;;;1.57;0.60;;;14.60;69.80;;;;;;5083754;28;20869;-90
2023/01/15 03:23:45;;;;;;;0.60;0.50;;;14.40;70.60;;;;;;5059342;27;20434;-90
2023/01/15 03:26:12;;;;;;;0.70;0.60;;;14.30;70.80;;;;;;5057786;28;20522;-90
2023/01/15 03:28:45;;;;;;;0.70;0.50;;;14.30;70.60;;;;;;5061010;28;20434;-90
2023/01/15 03:31:12;;;;;;;0.70;0.70;;;14.20;70.90;;;;;;5072330;28;20538;-90
2023/01/15 03:33:40;;;;;;;0.80;0.70;;;14.10;71.30;;;;;;5072902;28;20788;-91
2023/01/15 03:36:13;;;;;;;0.70;0.60;;;14.20;71.30;;;;;;5073039;28;20448;-90
2023/01/15 03:38:46;;;;;;;0.80;0.50;;;13.90;71.90;;;;;;5070379;28;20534;-90
2023/01/15 03:41:24;;;;;;;0.70;0.50;;;13.90;72.70;;;;;;5057434;28;20871;-91
2023/01/15 03:44:05;;;;;;;0.70;0.50;;;13.90;73.00;;;;;;5062538;27;20916;-90
2023/01/15 03:46:46;;;;;;;0.70;0.60;;;14.20;72.20;;;;;;5049622;28;20432;-90
2023/01/15 03:49:25;;;;;;;0.70;0.60;;;14.10;72.10;;;;;;5076148;28;20462;-89
2023/01/15 03:52:01;;;;;;;0.80;0.70;;;14.00;72.50;;;;;;5089585;28;20507;-90
2023/01/15 03:54:38;;;;;;;1.20;0.80;;;13.70;73.60;;;;;;5054021;28;20438;-89
2023/01/15 03:57:09;;;;;;;1.80;0.60;;;13.80;73.40;;;;;;5072122;28;20474;-89
2023/01/15 03:59:44;;;;;;;0.67;0.60;;;13.40;73.00;;;;;;5061632;28;21018;-90
2023/01/15 04:02:14;;;;;;;0.60;0.50;;;13.10;71.80;;;;;;5055964;28;20445;-90
2023/01/15 04:04:43;;;;;;;0.60;0.50;;;13.20;71.60;;;;;;5058538;28;20998;-90
2023/01/15 04:07:10;;;;;;;0.60;0.50;;;13.30;69.70;;;;;;5050934;28;20449;-90
2023/01/15 04:09:39;;;;;;;0.60;0.40;;;13.40;69.90;;;;;;5055079;28;21010;-89
2023/01/15 04:12:08;;;;;;;0.70;0.60;;;13.40;69.90;;;;;;5054384;28;20443;-90
2023/01/15 04:14:41;;;;;;;0.70;0.57;;;13.30;68.90;;;;;;5085273;28;20489;-89
2023/01/15 04:17:12;;;;;;;0.60;0.40;;;13.20;69.50;;;;;;5049347;28;20440;-89
2023/01/15 04:19:39;;;;;;;0.70;0.70;;;13.40;69.90;;;;;;5061537;28;21936;-89
2023/01/15 04:22:10;;;;;;;0.70;0.60;;;13.60;69.10;;;;;;5068182;28;20481;-90
2023/01/15 04:24:37;;;;;;;1.33;0.90;;;13.70;68.60;;;;;;5093310;28;20478;-90
2023/01/15 04:27:04;;;;;;;0.70;0.53;;;13.50;68.60;;;;;;5087782;28;20443;-91
2023/01/15 04:29:31;;;;;;;0.60;0.50;;;13.60;68.80;;;;;;5072157;28;20592;-90
2023/01/15 04:31:59;;;;;;;3.33;0.50;;;13.60;68.20;;;;;;5055988;28;20450;-89
2023/01/15 04:34:27;;;;;;;0.70;0.50;;;13.50;68.30;;;;;;5065266;28;20833;-90
2023/01/15 04:36:54;;;;;;;0.60;0.50;;;13.50;68.20;;;;;;5061255;28;20981;-90
2023/01/15 04:39:21;;;;;;;0.70;0.50;;;13.40;68.90;;;;;;5070794;28;20956;-88
2023/01/15 04:44:34;;;;;;;0.70;0.60;;;12.90;68.20;;;;;;5064735;28;20572;-90
2023/01/15 04:47:03;;;;;;;1.37;0.80;;;12.70;69.20;;;;;;5054046;28;20443;-88
2023/01/15 04:49:30;;;;;;;0.70;0.50;;;12.70;68.70;;;;;;5072032;28;21039;-89
2023/01/15 04:51:57;;;;;;;0.73;0.50;;;12.70;69.00;;;;;;5059698;28;20489;-90
2023/01/15 04:54:25;;;;;;;0.70;0.60;;;12.70;68.10;;;;;;5070369;27;20476;-89
2023/01/15 04:56:54;;;;;;;0.70;0.60;;;12.60;68.00;;;;;;5076182;27;20438;-89
2023/01/15 04:59:23;;;;;;;0.80;0.60;;;12.60;66.60;;;;;;5053942;28;20524;-88
2023/01/15 05:01:51;;;;;;;0.70;0.57;;;12.50;67.50;;;;;;5074615;27;20438;-90
2023/01/15 05:04:19;;;;;;;0.80;0.60;;;12.70;67.80;;;;;;5077005;28;20455;-90
2023/01/15 05:06:46;;;;;;;0.70;0.50;;;12.60;66.20;;;;;;5060820;27;20893;-89
2023/01/15 05:09:13;;;;;;;0.70;0.60;;;12.50;65.90;;;;;;5057293;28;20438;-90
2023/01/15 05:11:40;;;;;;;1.07;0.60;;;12.70;66.50;;;;;;5071735;28;20956;-89
2023/01/15 05:14:08;;;;;;;0.70;0.60;;;12.50;65.50;;;;;;5074095;28;20433;-89
2023/01/15 05:16:37;;;;;;;0.70;0.50;;;12.40;66.20;;;;;;5076253;27;20462;-90
2023/01/15 05:19:06;;;;;;;0.70;0.50;;;12.20;67.10;;;;;;5083090;27;20534;-89
2023/01/15 05:21:36;;;;;;;0.90;0.60;;;12.20;67.40;;;;;;5078695;27;20463;-89
2023/01/15 05:24:07;;;;;;;0.70;0.50;;;12.20;66.30;;;;;;5069316;28;20622;-90
2023/01/15 05:26:35;;;;;;;1.00;0.70;;;12.20;66.00;;;;;;5097666;28;20876;-89
2023/01/15 05:29:03;;;;;;;1.00;0.50;;;11.80;66.30;;;;;;5072045;28;20477;-88
2023/01/15 05:31:32;;;;;;;0.70;0.60;;;11.70;66.90;;;;;;5062844;28;20531;-90
2023/01/15 05:34:00;;;;;;;0.80;0.60;;;11.70;67.50;;;;;;5056243;28;20447;-89
2023/01/15 05:36:29;;;;;;;1.10;0.50;;;11.90;66.90;;;;;;5071279;28;20471;-89
2023/01/15 05:39:00;;;;;;;0.90;0.60;;;11.90;66.80;;;;;;5074029;28;21211;-89
2023/01/15 05:44:13;;;;;;;0.70;0.60;;;11.50;65.80;;;;;;5068796;28;20443;-88
2023/01/15 05:46:42;;;;;;;0.80;0.53;;;11.50;65.80;;;;;;5057536;27;20545;-89
2023/01/15 05:49:11;;;;;;;0.67;0.50;;;11.30;64.70;;;;;;5056269;28;20458;-89
2023/01/15 05:51:40;;;;;;;0.70;0.50;;;11.20;64.50;;;;;;5055198;28;20455;-88
2023/01/15 05:54:12;;;;;;;0.73;0.57;;;11.20;66.00;;;;;;5056458;28;20955;-89
2023/01/15 05:56:39;;;;;;;1.10;0.60;;;11.30;65.20;;;;;;5070113;27;20539;-89
2023/01/15 05:59:07;;;;;;;0.70;0.60;;;11.20;64.90;;;;;;5057348;28;20440;-89
2023/01/15 06:01:34;;;;;;;2.70;0.60;;;11.10;65.60;;;;;;5057988;27;20466;-89
2023/01/15 06:04:03;;;;;;;0.80;0.67;;;11.10;65.90;;;;;;5055649;28;20459;-88
2023/01/15 06:06:30;;;;;;;0.80;0.60;;;11.30;66.00;;;;;;5053463;28;20463;-89
2023/01/15 06:08:57;;;;;;;1.57;0.50;;;11.30;64.10;;;;;;5059004;28;20488;-89
2023/01/15 06:11:26;;;;;;;0.70;0.60;;;11.30;63.40;;;;;;5083345;28;20463;-88
2023/01/15 06:13:53;;;;;;;0.80;0.60;;;11.20;63.00;;;;;;5058614;28;20442;-90
2023/01/15 06:16:20;;;;;;;0.97;0.60;;;11.10;63.40;;;;;;5083280;28;20440;-89
2023/01/15 06:18:46;;;;;;;1.50;0.63;;;11.00;63.60;;;;;;5074732;28;20435;-89
2023/01/15 06:21:14;;;;;;;0.93;0.70;;;10.90;63.10;;;;;;5073038;28;20466;-89
2023/01/15 06:23:42;;;;;;;1.17;0.60;;;10.80;63.20;;;;;;5090673;28;20447;-89
2023/01/15 06:26:12;;;;;;;0.80;0.70;;;10.80;63.30;;;;;;5072585;28;20471;-89
2023/01/15 06:28:40;;;;;;;1.40;0.53;;;11.00;63.50;;;;;;5066968;28;20435;-89
2023/01/15 06:31:09;;;;;;;2.17;0.90;;;11.10;63.60;;;;;;5062769;28;20991;-89
2023/01/15 06:33:36;;;;;;;0.90;0.80;;;11.30;62.90;;;;;;5073707;28;20431;-89
2023/01/15 06:36:04;;;;;;;0.83;0.73;;;11.50;61.90;;;;;;5054193;28;20465;-89
2023/01/15 06:38:31;;;;;;;2.50;0.80;;;11.30;60.30;;;;;;5087685;28;20969;-90
2023/01/15 06:40:59;;;;;;;1.77;0.80;;;11.30;61.80;;;;;;5055185;28;20995;-89
2023/01/15 06:48:57;;;;;;;1.63;1.00;;;11.00;61.60;;;;;;5069746;28;20435;-88
2023/01/15 06:51:24;;;;;;;1.03;0.77;;;10.90;60.90;;;;;;5054170;28;20467;-90
2023/01/15 06:53:51;;;;;;;0.90;0.80;;;10.90;62.10;;;;;;5051806;28;20511;-89
2023/01/15 06:56:19;;;;;;;0.83;0.70;;;10.90;61.70;;;;;;5050609;28;20444;-89
2023/01/15 06:58:45;;;;;;;0.90;0.77;;;10.90;61.30;;;;;;5068875;28;20542;-89
2023/01/15 07:01:15;;;;;;;1.30;1.00;;;10.60;62.00;;;;;;5071755;28;20500;-89
2023/01/15 07:03:42;;;;;;;0.80;0.60;;;10.50;62.70;;;;;;5054789;28;20452;-89
2023/01/15 07:06:11;;;;;;;1.30;0.87;;;10.70;63.00;;;;;;5053166;28;20473;-90
2023/01/15 07:08:39;;;;;;;2.13;1.00;;;10.90;62.90;;;;;;5088929;28;20450;-89
2023/01/15 07:11:08;;;;;;;1.17;1.07;;;11.10;61.20;;;;;;5073373;28;20469;-88
2023/01/15 07:13:35;;;;;;;1.53;0.90;;;11.30;61.60;;;;;;5060700;27;20956;-90
2023/01/15 07:16:03;;;;;;;1.00;0.90;;;11.40;61.20;;;;;;5089899;28;20473;-88
2023/01/15 07:18:33;;;;;;;1.50;1.40;;;11.30;59.50;;;;;;5048822;28;20451;-89
2023/01/15 07:21:01;;;;;;;1.30;1.00;;;11.30;60.00;;;;;;5072568;28;20474;-89
2023/01/15 07:23:28;;;;;;;1.20;1.00;;;11.30;61.40;;;;;;5073047;28;20458;-88
2023/01/15 07:25:55;;;;;;;5.57;0.93;;;11.40;61.20;;;;;;5050938;28;20458;-88
2023/01/15 07:28:24;;;;;;;1.10;0.90;;;11.60;61.00;;;;;;5071592;28;21591;-87
2023/01/15 07:30:51;;;;;;;1.87;1.67;;;11.70;60.20;;;;;;5072852;28;20483;-90
2023/01/15 07:33:18;;;;;;;2.83;2.13;;;11.50;59.80;;;;;;5067679;28;20451;-89
2023/01/15 07:35:46;;;;;;;6.70;1.20;;;11.50;59.80;;;;;;5072222;28;20439;-89
2023/01/15 07:38:13;;;;;;;1.30;1.10;;;11.60;59.90;;;;;;5050457;28;20442;-89
2023/01/15 07:40:40;;;;;;;1.37;1.27;;;11.60;59.40;;;;;;5069088;27;20482;-89
2023/01/15 07:51:35;;;;;;;0.90;0.80;;;11.60;60.30;;;;;;5066941;28;20451;-87
2023/01/15 07:54:02;;;;;;;1.00;0.77;;;11.60;60.30;;;;;;5084335;28;20442;-85
2023/01/15 07:56:30;;;;;;;1.20;0.87;;;11.50;60.00;;;;;;5082283;28;20440;-88
2023/01/15 07:58:57;;;;;;;0.90;0.60;;;11.70;59.80;;;;;;5043027;28;20454;-88
2023/01/15 08:01:24;;;;;;;1.50;1.40;;;11.70;60.10;;;;;;5059815;28;20485;-88
2023/01/15 08:03:51;;;;;;;1.10;0.87;;;11.50;59.70;;;;;;5099079;27;20454;-87
2023/01/15 08:06:18;;;;;;;33.83;17.53;;;11.50;59.40;;;;;;5103964;27;20481;-88
2023/01/15 08:08:46;;;;;;;2.40;1.00;;;11.30;59.40;;;;;;5067575;28;20439;-88
2023/01/15 08:16:42;;;;;;;2.27;1.30;;;11.30;61.20;;;;;;5083384;28;20427;-88
2023/01/15 08:19:09;;;;;;;0.80;0.70;;;11.50;60.90;;;;;;5066843;28;20450;-87
2023/01/15 08:21:36;;;;;;;0.90;0.60;;;11.60;60.40;;;;;;5086022;28;20462;-88
2023/01/15 08:24:04;;;;;;;1.20;1.10;;;11.70;60.60;;;;;;5051013;28;20446;-88
2023/01/15 08:26:31;;;;;;;9.20;8.40;;;11.60;60.10;;;;;;5042795;28;20467;-88
2023/01/15 08:28:58;;;;;;;1.03;0.90;;;11.50;60.60;;;;;;5063862;28;20438;-88
2023/01/15 08:31:25;;;;;;;3.97;3.67;;;11.40;60.00;;;;;;5050909;28;20468;-87
2023/01/15 08:33:52;;;;;;;1.80;1.10;;;11.20;62.10;;;;;;5075832;28;20952;-88
2023/01/15 08:36:19;;;;;;;1.87;1.00;;;11.30;60.90;;;;;;5049441;28;20435;-89
2023/01/15 08:38:49;;;;;;;2.03;1.50;;;11.30;60.60;;;;;;5083356;28;20457;-88
2023/01/15 08:41:17;;;;;;;2.67;2.47;;;11.20;60.10;;;;;;5067374;28;21062;-88
2023/01/15 08:43:44;;;;;;;3.10;2.67;;;11.00;60.90;;;;;;5067271;28;20519;-89
2023/01/15 08:46:12;;;;;;;2.00;1.80;;;11.00;61.30;;;;;;5049713;28;20459;-89
2023/01/15 08:48:39;;;;;;;1.80;1.70;;;11.10;60.60;;;;;;5059939;28;20442;-87
2023/01/15 08:51:06;;;;;;;1.37;1.27;;;11.10;60.40;;;;;;5082516;28;20473;-87
2023/01/15 08:53:34;;;;;;;3.43;3.13;;;11.10;59.60;;;;;;5083822;28;20541;-88
2023/01/15 08:56:01;;;;;;;20.90;10.63;;;11.20;59.80;;;;;;5068119;28;20522;-88
2023/01/15 08:58:30;;;;;;;7.07;4.03;;;11.10;59.30;;;;;;5066383;28;20435;-88
2023/01/15 09:01:04;;;;;;;2.43;1.50;;;11.00;60.20;;;;;;5069007;28;20477;-88
2023/01/15 09:03:31;;;;;;;7.13;4.43;;;10.90;61.20;;;;;;5063842;28;20507;-88
2023/01/15 09:05:59;;;;;;;7.80;3.07;;;10.90;60.90;;;;;;5068218;28;20473;-87
2023/01/15 09:08:26;;;;;;;8.97;5.47;;;10.70;61.10;;;;;;5067022;28;20459;-87
2023/01/15 09:10:56;;;;;;;13.27;7.00;;;10.80;62.00;;;;;;5049207;28;20467;-87
2023/01/15 09:13:23;;;;;;;2.33;1.73;;;10.90;61.30;;;;;;5080771;28;20435;-87
2023/01/15 09:15:52;;;;;;;1.20;1.10;;;10.80;60.60;;;;;;5050709;28;22432;-89
2023/01/15 09:18:19;;;;;;;7.37;4.20;;;10.80;60.60;;;;;;5049729;28;20443;-88
2023/01/15 09:20:46;;;;;;;17.90;7.13;;;10.60;59.80;;;;;;5097803;28;20462;-87
2023/01/15 09:23:14;;;;;;;4.27;1.80;;;10.50;60.30;;;;;;5082571;28;20537;-87
2023/01/15 09:25:41;;;;;;;30.13;12.00;;;10.60;60.90;;;;;;5078054;28;20467;-86
2023/01/15 09:28:08;;;;;;;20.67;10.40;;;10.50;60.60;;;;;;5067394;28;20805;-85
2023/01/15 09:30:35;;;;;;;4.40;2.40;;;10.70;60.60;;;;;;5082644;28;21233;-88
2023/01/15 09:33:03;;;;;;;2.13;1.40;;;10.80;60.90;;;;;;5069721;28;20439;-87
2023/01/15 09:35:30;;;;;;;1.30;1.20;;;10.60;60.70;;;;;;5088485;28;20525;-87
2023/01/15 09:37:57;;;;;;;7.77;4.00;;;10.80;60.40;;;;;;5053498;27;20959;-87
2023/01/15 09:40:40;;;;;;;10.17;3.90;;;10.80;60.10;;;;;;5086747;28;20462;-87
2023/01/15 09:43:18;;;;;;;12.60;4.00;;;11.00;59.90;;;;;;5053807;28;20537;-87
2023/01/15 09:45:50;;;;;;;3.90;1.90;;;11.00;60.20;;;;;;5105857;28;20462;-87
2023/01/15 09:48:31;;;;;;;43.57;13.90;;;10.90;59.90;;;;;;5072680;28;20538;-86
2023/01/15 09:51:07;;;;;;;22.77;8.33;;;11.00;60.00;;;;;;5063578;28;20462;-86
2023/01/15 09:53:58;;;;;;;4.00;1.90;;;10.90;60.60;;;;;;5071755;28;20477;-85
2023/01/15 09:56:27;;;;;;;3.43;2.30;;;10.90;60.10;;;;;;5073819;28;20476;-86
2023/01/15 09:58:57;;;;;;;1.60;1.50;;;10.90;60.10;;;;;;5062664;27;20466;-86
2023/01/15 10:01:27;;;;;;;4.00;2.07;;;10.80;60.00;;;;;;5095387;28;20850;-87
2023/01/15 10:04:01;;;;;;;2.93;2.03;;;10.80;60.50;;;;;;5087331;28;20447;-86
2023/01/15 10:06:32;;;;;;;2.03;1.83;;;10.70;60.90;;;;;;5067682;28;20466;-85
2023/01/15 10:09:06;;;;;;;1.20;1.10;;;10.70;61.20;;;;;;5067020;27;20520;-85
2023/01/15 10:14:39;;;;;;;3.63;2.37;;;10.70;61.70;;;;;;5062490;28;20436;-86
2023/01/15 10:17:20;;;;;;;1.97;1.40;;;10.70;61.30;;;;;;5073326;28;20431;-86
2023/01/15 10:19:49;;;;;;;3.80;2.30;;;10.60;61.60;;;;;;5069493;27;21003;-87
2023/01/15 10:22:28;;;;;;;3.80;1.80;;;10.60;61.70;;;;;;5066005;28;21073;-86
2023/01/15 10:24:57;;;;;;;3.27;1.63;;;10.80;61.80;;;;;;5069858;28;20458;-86
2023/01/15 10:27:28;;;;;;;1.90;1.80;;;11.00;61.40;;;;;;5086304;28;20463;-88
2023/01/15 10:30:01;;;;;;;1.30;1.10;;;11.20;60.30;;;;;;5101071;28;20467;-87
2023/01/15 10:32:39;;;;;;;0.80;0.80;;;11.30;59.70;;;;;;5079171;28;20446;-88
2023/01/15 10:35:24;;;;;;;2.30;1.83;;;11.00;60.20;;;;;;5055155;28;20476;-87
2023/01/15 10:37:56;;;;;;;1.97;1.40;;;10.40;61.70;;;;;;5085979;28;20435;-86
2023/01/15 10:40:52;;;;;;;2.30;1.63;;;10.50;62.20;;;;;;5068618;28;20994;-87
2023/01/15 10:43:24;;;;;;;2.83;1.83;;;10.60;62.70;;;;;;5082744;28;20516;-88
2023/01/15 10:45:55;;;;;;;9.30;5.20;;;10.50;62.10;;;;;;5069758;28;21175;-88
2023/01/15 10:48:31;;;;;;;2.37;2.20;;;10.40;63.80;;;;;;5066743;28;20513;-86
2023/01/15 10:51:03;;;;;;;2.17;1.90;;;10.40;63.00;;;;;;5053338;27;20525;-87
2023/01/15 10:53:38;;;;;;;1.40;1.30;;;10.70;63.10;;;;;;5054009;28;20445;-88
2023/01/15 10:56:11;;;;;;;8.13;6.07;;;10.70;62.40;;;;;;5071077;28;21154;-87
2023/01/15 10:58:43;;;;;;;2.00;1.50;;;10.40;63.00;;;;;;5068844;27;20526;-86
2023/01/15 11:01:14;;;;;;;1.30;1.20;;;9.90;65.60;;;;;;5065810;28;20519;-86
2023/01/15 11:03:43;;;;;;;1.10;1.00;;;9.50;66.40;;;;;;5051814;27;20487;-87
2023/01/15 11:06:16;;;;;;;1.27;0.90;;;9.40;65.80;;;;;;5066520;28;20467;-87
2023/01/15 11:08:46;;;;;;;4.00;2.30;;;8.60;64.20;;;;;;5049907;28;20450;-86
2023/01/15 11:11:21;;;;;;;1.23;0.80;;;8.40;66.80;;;;;;5050168;28;20998;-86
2023/01/15 11:19:39;;;;;;;2.13;2.00;;;8.70;67.90;;;;;;5068110;28;20736;-85
2023/01/15 11:22:10;;;;;;;1.17;1.07;;;8.90;67.10;;;;;;5059012;28;20458;-86
2023/01/15 11:24:44;;;;;;;1.70;1.60;;;9.00;67.10;;;;;;5051981;28;21408;-86
2023/01/15 11:27:16;;;;;;;6.83;1.10;;;9.30;67.50;;;;;;5104714;28;20557;-86
2023/01/15 11:29:44;;;;;;;2.03;1.90;;;9.60;66.70;;;;;;5071799;28;20472;-87
2023/01/15 11:32:23;;;;;;;1.30;1.20;;;9.90;65.60;;;;;;5088956;28;20956;-86
2023/01/15 11:34:54;;;;;;;8.03;6.50;;;9.90;65.00;;;;;;5086098;27;20451;-88
2023/01/15 11:37:23;;;;;;;5.60;4.40;;;9.80;65.50;;;;;;5069015;28;20967;-87
2023/01/15 11:39:59;;;;;;;5.17;3.87;;;9.80;65.80;;;;;;5065640;27;20989;-87
2023/01/15 11:51:14;;;;;;;1.43;1.33;;;9.50;62.00;;;;;;4972053;28;20470;-87
2023/01/15 11:53:46;;;;;;;4.00;2.80;;;9.20;64.50;;;;;;5043222;27;20435;-86
2023/01/15 11:56:17;;;;;;;3.00;2.33;;;9.20;64.80;;;;;;5048887;28;20447;-86
2023/01/15 11:58:47;;;;;;;1.30;0.80;;;9.20;64.80;;;;;;5073676;27;20500;-87
2023/01/15 12:01:21;;;;;;;2.17;1.97;;;9.20;64.40;;;;;;5057871;28;21060;-86
2023/01/15 12:03:48;;;;;;;1.00;0.90;;;9.20;65.60;;;;;;5043513;28;20458;-87
2023/01/15 12:06:16;;;;;;;1.73;1.30;;;9.30;64.30;;;;;;5068028;28;20876;-86
2023/01/15 12:08:49;;;;;;;3.03;1.80;;;9.20;64.90;;;;;;5067446;28;20982;-86
2023/01/15 12:11:27;;;;;;;1.20;0.90;;;8.90;63.80;;;;;;5082080;28;20879;-85
2023/01/15 12:14:07;;;;;;;1.10;1.00;;;8.70;64.00;;;;;;5084718;28;20537;-86
2023/01/15 12:16:43;;;;;;;0.90;0.80;;;8.80;65.00;;;;;;5052428;28;20984;-88
2023/01/15 12:19:16;;;;;;;9.87;3.80;;;8.90;64.40;;;;;;5067592;28;20442;-86
2023/01/15 12:22:10;;;;;;;20.93;12.63;;;8.90;63.40;;;;;;5068967;28;21178;-87
2023/01/15 12:25:04;;;;;;;4.57;3.97;;;9.10;64.20;;;;;;5043108;28;20457;-87
2023/01/15 12:27:51;;;;;;;1.40;1.30;;;9.10;63.40;;;;;;5083924;28;20575;-86
2023/01/15 12:30:25;;;;;;;1.47;1.37;;;9.10;62.70;;;;;;5074789;28;21115;-86
2023/01/15 12:32:58;;;;;;;5.80;1.83;;;9.00;62.40;;;;;;5051048;28;20451;-87
2023/01/15 12:35:29;;;;;;;1.23;1.13;;;8.80;64.70;;;;;;5066909;28;20820;-88
2023/01/15 12:37:59;;;;;;;1.43;1.33;;;9.00;65.00;;;;;;5070138;28;20995;-87
2023/01/15 12:40:33;;;;;;;1.00;0.90;;;8.90;63.80;;;;;;5096169;28;20488;-87
2023/01/15 12:45:48;;;;;;;2.77;1.27;;;8.50;65.00;;;;;;5047376;28;20431;-87
2023/01/15 12:48:19;;;;;;;1.70;1.60;;;8.50;65.20;;;;;;5061417;28;20481;-87
2023/01/15 12:50:48;;;;;;;1.20;1.10;;;8.40;65.40;;;;;;5084502;28;20546;-87
2023/01/15 12:53:19;;;;;;;2.53;2.20;;;8.60;66.00;;;;;;5066708;28;20436;-86
2023/01/15 12:55:56;;;;;;;1.77;1.23;;;8.90;64.70;;;;;;5051707;28;20443;-88
2023/01/15 12:58:37;;;;;;;2.60;1.40;;;8.80;64.70;;;;;;5099826;28;20474;-86
2023/01/15 13:01:11;;;;;;;1.20;0.90;;;8.70;64.60;;;;;;5075683;28;20470;-85
2023/01/15 13:03:49;;;;;;;1.40;1.20;;;8.70;64.60;;;;;;5066760;28;20455;-87
2023/01/15 13:06:17;;;;;;;2.03;0.80;;;8.90;65.00;;;;;;5049962;28;20474;-87
2023/01/15 13:08:54;;;;;;;1.20;1.10;;;8.80;63.80;;;;;;5067244;28;20471;-85
2023/01/15 13:11:22;;;;;;;3.73;0.80;;;8.80;63.70;;;;;;5069044;28;20469;-88
2023/01/15 13:13:57;;;;;;;1.50;1.10;;;8.80;63.90;;;;;;5071623;28;20450;-88
2023/01/15 13:16:40;;;;;;;1.00;0.90;;;8.60;63.60;;;;;;5053571;28;20442;-87
2023/01/15 13:19:29;;;;;;;1.80;0.90;;;8.60;65.10;;;;;;5076136;28;20449;-87
2023/01/15 13:22:01;;;;;;;1.40;1.10;;;8.70;63.70;;;;;;5064641;28;20462;-87
2023/01/15 13:24:59;;;;;;;2.20;1.70;;;8.80;62.40;;;;;;5062631;28;20435;-87
2023/01/15 13:27:42;;;;;;;2.20;2.00;;;8.80;63.20;;;;;;5061790;28;21223;-87
2023/01/15 13:30:38;;;;;;;1.40;1.20;;;8.80;62.90;;;;;;5062782;28;20478;-86
2023/01/15 13:33:17;;;;;;;1.60;1.43;;;9.10;62.90;;;;;;5054964;27;20426;-86
2023/01/15 13:35:48;;;;;;;1.67;0.90;;;9.20;62.60;;;;;;5071484;28;20982;-88
2023/01/15 13:38:19;;;;;;;3.00;1.73;;;9.20;63.10;;;;;;5077915;28;20486;-88
2023/01/15 13:40:51;;;;;;;2.13;1.00;;;9.40;62.90;;;;;;5067399;28;20511;-87
2023/01/15 13:43:33;;;;;;;3.67;1.80;;;9.70;61.90;;;;;;4991983;28;20455;-89
2023/01/15 13:46:03;;;;;;;1.37;1.27;;;10.10;59.90;;;;;;5022463;28;20460;-88
2023/01/15 13:48:34;;;;;;;1.03;0.93;;;10.30;60.00;;;;;;5044211;28;20469;-89
2023/01/15 13:51:04;;;;;;;0.80;0.70;;;10.50;59.30;;;;;;5030733;28;20472;-88
2023/01/15 13:53:34;;;;;;;1.67;1.00;;;10.10;58.30;;;;;;5031015;28;20448;-88
2023/01/15 13:56:05;;;;;;;0.90;0.80;;;10.00;59.50;;;;;;5030021;28;20456;-87
2023/01/15 13:58:35;;;;;;;1.00;0.83;;;9.90;59.30;;;;;;5011406;28;20441;-86
2023/01/15 14:01:20;;;;;;;2.80;1.60;;;9.80;61.10;;;;;;5046513;28;20821;-88